Keesler Air Force Base
KBIX : now visible

Airfield :











YOU CAN JOIN US ON...

 
LOGIN :

Register | Disclaimer

   EN    FR    IT 

 









Legend :    VFR   Marginal VFR   IFR   Intensive IFR   Very Intensive IFR
Visi :
Ceiling :
>= 8 km
>= 3000ft
5 to 8 km
1000 to 3000 ft
1500m to 5 km
500 to 1000 ft
800 to 1500m
200 to 500 ft
< 800m
< 200 ft
Symbols :   Thunderstorms  Fog  Heavy snow  Heavy precipitations  Wind > 20 kt






- Airport Elevation : 33 ft


KBIX - Keesler Air Force Base

CURRENT METAR :
  • 100156Z AUTO 23004KT 10SM CLR 29/26 A2992 RMK AO2 SLP135 T02910259

EXPIRED METARs :
  • 100056Z AUTO 22010KT 10SM CLR 30/27 A2992 RMK AO2 SLP135 T02960270
  • 092356Z AUTO 22011KT 10SM CLR 31/27 A2992 RMK AO2 SLP135 T03050268 10329 20305 50002

TAF TAF KBIX
Valid from the 10 at 02:00 until the 11 at 08:00 UTC


100200Z 1002/1108 22009KT 9999 FEW040 QNH2991INS TX32/1021Z TN25/1012Z
KZHU FIR / North America



MET'MAP, your aeronautical weather chart ! - Copyright ORBIFLY December 2007 - Disclaimer

ORBIFLY MET'MAP TEAM :

Programming & Development : Alexandra Zaïnal
Concept & original design : Baudouin d'Aumeries
Assistance for programming : Marc-Olivier Méhu
Technical & hardware support : Manuel Goepfert

Contact : metmap@orbifly.com




SOURCES & CREDITS :

   NOAA       Earth
Advisory